Time;durP1;ratioP1;P1;durP2;ratioP2;P2;SDS_P1;SDS_P2;PMS_P1;PMS_P2;Temp;Humidity;BMP_temperature;BMP_pressure;BME280_temperature;BME280_humidity;BME280_pressure;Samples;Min_cycle;Max_cycle;Signal;HPM_P1;HPM_P2
2022/09/17 00:01:45;;;;;;;9.70;3.60;;;;;;;16.28;66.85;97816.72;4488080;31;20110;-82
2022/09/17 00:04:10;;;;;;;10.85;4.10;;;;;;;16.64;66.51;97812.41;4488120;31;20125;-82
2022/09/17 00:06:36;;;;;;;10.85;4.20;;;;;;;16.03;68.46;97812.84;4487945;31;20402;-82
2022/09/17 00:09:06;;;;;;;10.90;4.60;;;;;;;15.68;68.79;97816.91;4487932;31;20080;-82
2022/09/17 00:11:33;;;;;;;10.70;4.72;;;;;;;15.59;70.75;97820.38;4488167;31;20569;-82
2022/09/17 00:13:59;;;;;;;;;;;;;;;15.86;69.74;97815.28;4486959;32;20454;-81
2022/09/17 00:16:31;;;;;;;13.20;4.90;;;;;;;16.36;68.19;97821.31;4487798;31;19980;-81
2022/09/17 00:18:57;;;;;;;11.75;4.40;;;;;;;16.57;67.75;97815.81;4487804;31;20088;-82
2022/09/17 00:21:23;;;;;;;11.02;4.25;;;;;;;15.85;68.78;97810.91;4486575;32;20107;-81
2022/09/17 00:23:52;;;;;;;10.90;4.72;;;;;;;15.82;69.28;97813.00;4487298;32;20141;-81
2022/09/17 00:26:18;;;;;;;10.18;4.20;;;;;;;15.64;69.14;97813.69;4486520;32;20104;-81
2022/09/17 00:28:47;;;;;;;11.35;4.95;;;;;;;15.76;67.94;97808.28;4487662;31;20466;-82
2022/09/17 00:31:12;;;;;;;11.25;4.18;;;;;;;15.63;68.65;97813.84;4487638;32;20352;-82
2022/09/17 00:33:38;;;;;;;12.50;4.80;;;;;;;15.27;69.61;97795.78;4487533;31;20130;-82
2022/09/17 00:36:04;;;;;;;10.32;3.95;;;;;;;15.18;69.82;97790.47;4487529;31;20084;-82
2022/09/17 00:38:30;;;;;;;11.12;4.55;;;;;;;15.10;70.26;97791.16;4487743;31;20100;-81
2022/09/17 00:40:55;;;;;;;9.70;4.07;;;;;;;15.36;69.44;97788.81;4487645;31;20475;-81
2022/09/17 00:43:38;;;;;;;12.05;4.37;;;;;;;15.42;69.01;97787.44;4487526;31;20141;-82
2022/09/17 00:46:08;;;;;;;11.35;4.78;;;;;;;15.41;69.12;97786.56;4487656;31;20108;-81
2022/09/17 00:48:33;;;;;;;10.88;4.18;;;;;;;15.39;68.51;97777.91;4487697;31;20122;-81
2022/09/17 00:51:00;;;;;;;11.02;4.10;;;;;;;15.86;66.85;97771.94;4487450;31;20088;-81
2022/09/17 00:53:27;;;;;;;9.45;3.78;;;;;;;15.71;67.01;97774.97;4486477;32;20150;-81
2022/09/17 00:56:22;;;;;;;10.65;4.25;;;;;;;15.58;67.45;97771.78;4486356;32;20142;-82
2022/09/17 00:58:48;;;;;;;11.75;4.87;;;;;;;15.88;66.66;97776.13;4484245;32;20127;-82
2022/09/17 01:01:14;;;;;;;9.80;4.20;;;;;;;15.70;66.78;97775.13;4486198;32;20144;-81
2022/09/17 01:03:40;;;;;;;10.73;4.10;;;;;;;16.08;65.54;97770.78;4487319;32;20149;-81
2022/09/17 01:06:23;;;;;;;11.40;4.05;;;;;;;16.27;65.53;97770.72;4486230;32;20198;-82
2022/09/17 01:08:55;;;;;;;11.35;3.95;;;;;;;16.52;64.84;97769.22;4487572;32;20414;-82
2022/09/17 01:11:52;;;;;;;10.52;3.85;;;;;;;15.70;67.18;97769.81;4486257;32;20085;-82
2022/09/17 01:14:32;;;;;;;9.10;3.87;;;;;;;15.68;67.08;97769.97;4487613;31;20099;-82
2022/09/17 01:17:22;;;;;;;10.68;3.92;;;;;;;15.95;65.80;97770.25;4487495;32;20165;-82
2022/09/17 01:20:26;;;;;;;10.25;4.00;;;;;;;15.96;65.73;97769.28;4487463;31;20088;-82
2022/09/17 01:22:59;;;;;;;9.88;3.58;;;;;;;15.98;64.83;97765.47;4487535;31;20411;-82
2022/09/17 01:25:51;;;;;;;10.45;4.18;;;;;;;16.34;64.11;97760.37;4487329;31;20439;-82
2022/09/17 01:28:31;;;;;;;9.95;3.58;;;;;;;16.19;64.23;97781.25;4484158;32;20127;-82
2022/09/17 01:31:05;;;;;;;9.75;3.33;;;;;;;16.26;64.00;97778.84;4486215;32;20517;-82
2022/09/17 01:33:45;;;;;;;10.13;3.78;;;;;;;16.28;63.31;97779.53;4487326;31;20106;-82
2022/09/17 01:36:14;;;;;;;10.35;3.75;;;;;;;15.36;65.54;97788.00;4486328;31;20157;-83
2022/09/17 01:39:11;;;;;;;13.38;3.83;;;;;;;15.70;64.81;97791.91;4487182;31;20143;-83
2022/09/17 01:42:35;;;;;;;7.72;3.08;;;;;;;15.79;64.38;97787.59;4397155;32;20530;-82
2022/09/17 01:45:09;;;;;;;9.82;3.58;;;;;;;15.42;65.11;97790.09;4318322;33;20096;-82
2022/09/17 01:47:37;;;;;;;8.68;3.35;;;;;;;15.71;64.88;97792.75;4318462;33;20092;-82
2022/09/17 01:50:09;;;;;;;10.85;4.28;;;;;;;14.83;66.90;97802.38;4306270;33;20124;-82
2022/09/17 01:52:37;;;;;;;10.45;4.10;;;;;;;14.55;68.28;97808.25;4306238;33;20096;-82
2022/09/17 01:55:04;;;;;;;;;;;;;;;14.79;68.46;97798.34;4318624;33;20123;-82
2022/09/17 01:57:48;;;;;;;10.90;3.67;;;;;;;14.94;67.76;97797.81;4306379;33;20116;-81
2022/09/17 02:00:16;;;;;;;9.57;3.85;;;;;;;15.47;66.29;97791.34;4306116;33;20115;-82
2022/09/17 02:02:57;;;;;;;10.95;3.90;;;;;;;15.40;64.46;97792.03;4305941;33;20203;-82
2022/09/17 02:05:29;;;;;;;10.38;4.20;;;;;;;15.71;64.24;97798.87;4318045;33;20091;-81
2022/09/17 02:07:58;;;;;;;9.73;3.40;;;;;;;15.37;65.91;97797.63;4317794;33;20208;-80
2022/09/17 02:10:28;;;;;;;10.30;3.78;;;;;;;15.71;64.43;97790.09;4317954;33;20167;-80
2022/09/17 02:12:58;;;;;;;9.57;3.80;;;;;;;15.37;65.05;97790.50;4305839;33;20122;-81
2022/09/17 02:15:33;;;;;;;8.77;3.08;;;;;;;15.49;64.69;97775.25;4317988;33;20112;-80
2022/09/17 02:18:08;;;;;;;8.90;3.20;;;;;;;14.88;66.38;97771.00;4331690;32;20105;-82
2022/09/17 02:20:39;;;;;;;9.43;3.30;;;;;;;14.76;65.61;97775.59;4394733;32;20447;-82
2022/09/17 02:23:12;;;;;;;8.48;3.20;;;;;;;14.66;66.67;97780.84;4481326;32;20110;-82
2022/09/17 02:25:50;;;;;;;8.48;3.30;;;;;;;14.96;65.02;97770.34;4485721;32;20084;-82
2022/09/17 02:29:02;;;;;;;8.52;3.33;;;;;;;15.06;64.61;97772.00;4485767;32;20098;-82
2022/09/17 02:31:28;;;;;;;8.27;3.30;;;;;;;14.92;64.52;97767.13;4480761;32;20141;-82
2022/09/17 02:34:00;;;;;;;8.68;3.08;;;;;;;15.21;63.51;97763.66;4486687;31;20085;-82
2022/09/17 02:36:26;;;;;;;10.77;3.40;;;;;;;15.27;62.88;97771.91;4485528;32;20072;-82
2022/09/17 02:39:00;;;;;;;8.82;3.20;;;;;;;14.66;64.95;97770.25;4486666;31;20083;-82
2022/09/17 02:41:35;;;;;;;9.27;3.28;;;;;;;14.42;66.16;97761.75;4485499;32;20100;-82
2022/09/17 02:44:20;;;;;;;9.02;3.10;;;;;;;14.75;64.77;97758.81;4485434;32;20114;-82
2022/09/17 02:47:03;;;;;;;8.75;3.15;;;;;;;15.17;63.30;97749.84;4485429;32;20443;-82
2022/09/17 02:49:41;;;;;;;8.43;3.03;;;;;;;15.29;62.11;97743.41;4486548;32;20449;-83
2022/09/17 02:52:16;;;;;;;8.95;3.15;;;;;;;14.49;65.27;97753.13;4486562;31;20140;-83
2022/09/17 02:55:22;;;;;;;7.82;2.78;;;;;;;14.71;64.50;97746.81;4485412;32;20096;-83
2022/09/17 02:58:06;;;;;;;10.43;3.25;;;;;;;14.60;64.73;97756.69;4485211;32;20590;-83
2022/09/17 03:00:31;;;;;;;8.80;3.20;;;;;;;14.80;64.00;97736.41;4486367;32;20092;-81
2022/09/17 03:02:57;;;;;;;8.43;3.00;;;;;;;14.46;64.86;97737.50;4486249;31;20485;-82
2022/09/17 03:05:23;;;;;;;9.98;3.28;;;;;;;14.95;63.73;97735.03;4486241;32;20092;-82
2022/09/17 03:07:49;;;;;;;9.95;3.95;;;;;;;14.68;64.16;97730.34;4486044;31;20432;-82
2022/09/17 03:10:15;;;;;;;9.05;3.28;;;;;;;14.65;64.05;97733.28;4486572;31;20080;-83
2022/09/17 03:12:40;;;;;;;8.38;3.03;;;;;;;14.60;64.42;97730.19;4486384;31;20156;-82
2022/09/17 03:15:07;;;;;;;9.38;3.17;;;;;;;14.49;64.55;97744.37;4485231;32;20395;-82
2022/09/17 03:17:33;;;;;;;7.80;2.92;;;;;;;14.77;63.81;97718.09;4485071;32;20084;-83
2022/09/17 03:19:59;;;;;;;8.80;2.55;;;;;;;14.92;63.19;97727.34;4485112;32;20107;-82
2022/09/17 03:22:24;;;;;;;8.63;2.80;;;;;;;15.28;61.75;97717.88;4485733;31;20085;-82
2022/09/17 03:24:50;;;;;;;8.02;2.80;;;;;;;15.42;61.41;97708.66;4484876;32;20168;-82
2022/09/17 03:27:15;;;;;;;8.55;2.95;;;;;;;15.04;62.69;97697.03;4485898;31;20151;-81
2022/09/17 03:29:41;;;;;;;9.88;3.05;;;;;;;14.71;63.36;97685.00;4484823;32;20414;-82
2022/09/17 03:32:07;;;;;;;8.73;2.62;;;;;;;14.68;63.98;97680.84;4471675;32;20145;-82
2022/09/17 03:34:33;;;;;;;9.80;3.17;;;;;;;14.58;64.33;97673.81;4485882;31;20156;-82
2022/09/17 03:36:58;;;;;;;8.30;3.05;;;;;;;14.23;65.61;97664.50;4485721;31;20141;-82
2022/09/17 03:39:24;;;;;;;9.18;3.33;;;;;;;14.66;64.57;97663.38;4485751;31;20079;-83
2022/09/17 03:41:50;;;;;;;9.40;3.17;;;;;;;14.53;64.29;97647.72;4485684;31;20089;-82
2022/09/17 03:44:17;;;;;;;9.50;3.33;;;;;;;14.52;64.12;97648.66;4485920;31;20778;-82
2022/09/17 03:46:43;;;;;;;9.13;3.20;;;;;;;14.33;65.26;97639.72;4484621;32;20456;-82
2022/09/17 03:49:08;;;;;;;9.32;3.28;;;;;;;14.03;65.52;97642.41;4485507;31;20077;-82
2022/09/17 03:51:33;;;;;;;8.50;3.28;;;;;;;14.21;65.40;97643.44;4484416;32;20096;-82
2022/09/17 03:53:59;;;;;;;9.93;2.70;;;;;;;14.36;64.53;97641.25;4485423;31;20136;-82
2022/09/17 03:56:25;;;;;;;8.45;2.90;;;;;;;14.02;65.36;97654.78;4485483;31;20098;-82
2022/09/17 03:58:50;;;;;;;8.48;3.15;;;;;;;13.89;65.65;97644.44;4486053;31;20103;-82
2022/09/17 04:01:16;;;;;;;7.78;3.00;;;;;;;14.07;65.23;97638.50;4487840;32;20100;-82
2022/09/17 04:03:41;;;;;;;9.13;3.05;;;;;;;13.66;66.58;97649.06;4487729;31;20080;-82
2022/09/17 04:06:07;;;;;;;10.52;4.12;;;;;;;13.92;65.59;97646.81;4487902;32;20141;-82
2022/09/17 04:08:32;;;;;;;8.13;3.25;;;;;;;13.99;65.44;97652.44;4487684;31;20128;-82
2022/09/17 04:10:58;;;;;;;8.85;3.15;;;;;;;13.46;67.05;97653.41;4486650;32;20115;-82
2022/09/17 04:13:23;;;;;;;8.27;3.12;;;;;;;13.64;66.72;97666.88;4487777;31;20077;-82
2022/09/17 04:15:49;;;;;;;8.95;3.20;;;;;;;13.78;66.20;97668.34;4487712;31;20440;-82
2022/09/17 04:18:14;;;;;;;9.77;3.53;;;;;;;13.43;67.27;97664.25;4487767;31;20080;-82
2022/09/17 04:20:40;;;;;;;9.75;3.83;;;;;;;13.61;66.79;97655.72;4487734;31;20131;-82
2022/09/17 04:23:08;;;;;;;8.90;3.53;;;;;;;13.35;67.96;97653.47;4487705;31;20093;-82
2022/09/17 04:25:34;;;;;;;8.90;3.78;;;;;;;13.48;66.71;97635.59;4486609;32;20120;-82
2022/09/17 04:27:59;;;;;;;9.68;3.37;;;;;;;13.65;66.27;97634.12;4487489;31;20115;-82
2022/09/17 04:30:25;;;;;;;10.07;3.40;;;;;;;13.60;66.73;97640.78;4487709;31;20073;-82
2022/09/17 04:32:50;;;;;;;9.45;3.17;;;;;;;13.34;66.97;97635.91;4487645;31;20123;-82
2022/09/17 04:35:16;;;;;;;10.18;3.45;;;;;;;13.56;66.50;97658.75;4487611;31;20112;-82
2022/09/17 04:37:41;;;;;;;10.55;3.37;;;;;;;13.32;67.03;97643.13;4487630;31;20129;-82
2022/09/17 04:40:07;;;;;;;10.13;3.58;;;;;;;13.29;66.98;97651.28;4487588;31;20145;-81
2022/09/17 04:42:32;;;;;;;9.63;3.37;;;;;;;13.52;66.35;97655.53;4486432;32;20092;-84
2022/09/17 04:44:58;;;;;;;10.40;3.00;;;;;;;13.79;65.37;97648.84;4487644;31;20141;-82
2022/09/17 04:47:24;;;;;;;10.52;3.10;;;;;;;13.99;64.53;97644.47;4486269;32;20450;-86
2022/09/17 04:49:49;;;;;;;9.52;3.25;;;;;;;14.09;64.30;97650.62;4487461;31;20088;-85
2022/09/17 04:52:15;;;;;;;9.55;3.22;;;;;;;13.71;65.36;97648.66;4486375;32;20156;-85
2022/09/17 04:54:40;;;;;;;11.10;3.60;;;;;;;13.42;66.71;97646.69;4487684;31;20127;-85
2022/09/17 04:57:06;;;;;;;9.32;3.55;;;;;;;13.65;65.93;97649.19;4487600;31;20115;-85
2022/09/17 04:59:31;;;;;;;10.18;3.35;;;;;;;13.81;65.42;97651.34;4487377;31;20103;-84
2022/09/17 05:01:57;;;;;;;8.35;2.92;;;;;;;13.96;64.82;97645.59;4486165;32;20226;-84
2022/09/17 05:04:22;;;;;;;9.77;3.33;;;;;;;13.68;65.93;97648.94;4487458;32;20127;-86
2022/09/17 05:06:48;;;;;;;9.07;3.30;;;;;;;13.56;66.05;97648.19;4487299;31;20455;-84
2022/09/17 05:09:13;;;;;;;10.73;3.60;;;;;;;13.67;66.11;97650.72;4487532;31;20088;-85
2022/09/17 05:11:39;;;;;;;10.45;3.30;;;;;;;14.02;64.50;97646.00;4486256;31;20330;-84
2022/09/17 05:14:05;;;;;;;7.68;3.00;;;;;;;14.16;64.04;97654.44;4487334;31;20080;-85
2022/09/17 05:16:30;;;;;;;9.48;2.97;;;;;;;14.10;64.64;97662.94;4487364;31;20084;-85
2022/09/17 05:18:56;;;;;;;9.77;3.30;;;;;;;14.03;64.77;97661.78;4487337;31;20430;-86
2022/09/17 05:21:22;;;;;;;8.70;2.78;;;;;;;14.38;63.74;97655.19;4487410;31;20581;-84
2022/09/17 05:23:47;;;;;;;7.95;2.92;;;;;;;14.40;63.04;97657.72;4487238;31;20103;-85
2022/09/17 05:26:13;;;;;;;9.07;3.20;;;;;;;14.51;62.79;97660.25;4487313;31;20072;-87
2022/09/17 05:28:38;;;;;;;9.15;3.22;;;;;;;14.60;62.56;97664.75;4487371;32;20123;-87
2022/09/17 05:31:04;;;;;;;9.95;3.35;;;;;;;14.36;63.42;97678.34;4487193;31;20468;-88
2022/09/17 05:33:29;;;;;;;11.32;3.28;;;;;;;14.26;63.45;97674.84;4487318;31;20114;-84
2022/09/17 05:35:54;;;;;;;10.70;2.92;;;;;;;14.75;61.78;97670.50;4487349;31;20124;-84
2022/09/17 05:38:20;;;;;;;12.30;3.33;;;;;;;14.71;61.66;97674.41;4487213;31;20152;-87
2022/09/17 05:40:45;;;;;;;7.72;2.87;;;;;;;14.60;62.05;97683.31;4487351;31;20176;-82
2022/09/17 05:43:11;;;;;;;8.05;2.97;;;;;;;14.39;62.55;97687.81;4485676;31;20127;-81
2022/09/17 05:45:37;;;;;;;8.88;3.25;;;;;;;14.18;62.96;97691.41;4491947;31;20084;-81
2022/09/17 05:48:04;;;;;;;7.97;2.92;;;;;;;14.38;62.39;97684.34;4491383;31;20103;-82
2022/09/17 05:50:30;;;;;;;7.60;2.92;;;;;;;14.86;60.49;97694.25;4466692;31;20097;-79
2022/09/17 05:52:56;;;;;;;7.30;2.58;;;;;;;14.67;60.69;97697.69;4491317;31;20071;-81
2022/09/17 05:55:22;;;;;;;7.62;2.50;;;;;;;14.55;60.90;97709.38;4494805;31;20372;-82
2022/09/17 05:57:48;;;;;;;6.90;2.30;;;;;;;14.28;62.11;97707.31;4491401;31;20147;-81
2022/09/17 06:00:15;;;;;;;8.32;2.50;;;;;;;14.42;60.83;97706.94;4490844;31;20122;-81
2022/09/17 06:02:40;;;;;;;6.78;2.15;;;;;;;14.48;60.64;97703.75;4477383;31;20122;-80
2022/09/17 06:05:06;;;;;;;7.45;2.58;;;;;;;14.18;60.49;97706.44;4493325;31;20483;-81
2022/09/17 06:07:34;;;;;;;7.53;2.37;;;;;;;14.48;60.06;97724.94;4479504;31;20088;-81
2022/09/17 06:09:59;;;;;;;;;;;;;;;14.60;59.90;97708.97;4493080;31;20581;-83
2022/09/17 06:12:25;;;;;;;7.37;2.30;;;;;;;15.00;58.82;97713.38;4480128;31;19990;-82
2022/09/17 06:14:50;;;;;;;7.15;2.35;;;;;;;14.73;59.86;97715.69;4493604;31;20396;-87
2022/09/17 06:17:16;;;;;;;6.82;2.37;;;;;;;14.40;61.67;97718.66;4495232;31;20148;-83
2022/09/17 06:19:41;;;;;;;8.52;2.58;;;;;;;14.55;60.14;97704.91;4492428;31;20096;-86
2022/09/17 06:22:06;;;;;;;7.90;2.40;;;;;;;14.05;61.70;97701.38;4493316;31;20111;-86
2022/09/17 06:24:32;;;;;;;7.80;2.40;;;;;;;14.39;61.29;97690.47;4493166;31;20088;-85
2022/09/17 06:26:57;;;;;;;7.07;2.50;;;;;;;14.44;61.35;97693.56;4492628;31;20130;-86
2022/09/17 06:29:23;;;;;;;6.68;2.15;;;;;;;14.28;62.45;97696.72;4478216;31;20429;-87
2022/09/17 06:31:49;;;;;;;7.10;2.65;;;;;;;14.37;61.64;97706.53;4493913;31;20091;-89
2022/09/17 06:34:14;;;;;;;7.85;2.72;;;;;;;14.48;61.58;97710.88;4479236;31;20103;-86
2022/09/17 06:36:40;;;;;;;8.13;2.30;;;;;;;14.52;61.35;97702.50;4493595;31;20089;-88
2022/09/17 06:39:05;;;;;;;8.50;2.50;;;;;;;14.47;60.84;97710.03;4478125;31;20161;-89
2022/09/17 06:41:32;;;;;;;7.05;2.53;;;;;;;14.79;60.60;97711.66;4493981;31;20114;-87
2022/09/17 06:43:57;;;;;;;7.35;2.60;;;;;;;14.95;59.93;97721.78;4493129;31;20131;-87
2022/09/17 06:46:23;;;;;;;7.90;2.55;;;;;;;14.70;60.78;97718.66;4492474;31;20107;-88
2022/09/17 06:48:48;;;;;;;7.55;2.37;;;;;;;14.96;60.08;97728.72;4493315;31;20181;-89
2022/09/17 06:51:13;;;;;;;7.47;2.35;;;;;;;15.20;59.04;97720.41;4493197;31;20456;-89
2022/09/17 06:53:39;;;;;;;7.20;2.62;;;;;;;15.07;59.63;97731.25;4479698;31;20072;-89
2022/09/17 06:56:07;;;;;;;7.05;2.28;;;;;;;14.89;59.50;97739.06;4491865;31;20115;-88
2022/09/17 06:58:33;;;;;;;8.20;2.47;;;;;;;14.98;59.63;97745.34;4493019;31;20567;-87
2022/09/17 07:01:00;;;;;;;7.93;2.40;;;;;;;15.36;58.59;97742.88;4493275;31;20158;-89
2022/09/17 07:03:26;;;;;;;8.63;2.30;;;;;;;15.27;58.67;97731.28;4491720;31;20132;-88
2022/09/17 07:05:51;;;;;;;5.15;2.17;;;;;;;15.26;58.75;97730.44;4493012;31;20119;-88
2022/09/17 07:08:16;;;;;;;6.97;2.25;;;;;;;15.35;58.48;97736.72;4492913;31;20092;-86
2022/09/17 07:10:42;;;;;;;7.22;2.17;;;;;;;15.14;58.74;97742.16;4491622;31;20479;-87
2022/09/17 07:13:07;;;;;;;8.85;2.20;;;;;;;15.30;58.32;97729.19;4491102;31;20083;-86
2022/09/17 07:15:33;;;;;;;6.20;2.30;;;;;;;15.54;57.37;97727.91;4474948;32;20364;-87
2022/09/17 07:17:58;;;;;;;6.93;2.00;;;;;;;15.61;57.42;97736.16;4486067;32;20080;-86
2022/09/17 07:20:24;;;;;;;8.00;2.00;;;;;;;15.92;56.70;97743.00;4483940;31;20182;-80
2022/09/17 07:22:56;;;;;;;6.20;2.10;;;;;;;15.66;56.61;97725.94;4480361;31;20467;-82
2022/09/17 07:25:23;;;;;;;7.47;2.08;;;;;;;15.73;56.87;97716.47;4494313;31;20729;-81
2022/09/17 07:27:49;;;;;;;7.37;1.95;;;;;;;15.93;56.44;97711.94;4474875;32;20104;-82
2022/09/17 07:30:14;;;;;;;7.32;2.15;;;;;;;15.69;56.38;97723.00;4478628;32;20531;-81
2022/09/17 07:32:40;;;;;;;9.68;2.10;;;;;;;15.94;55.51;97728.75;4483443;31;20096;-81
2022/09/17 07:35:06;;;;;;;6.75;2.10;;;;;;;16.10;55.36;97713.84;4482321;32;20124;-81
2022/09/17 07:37:32;;;;;;;6.68;1.87;;;;;;;16.02;55.44;97721.72;4490943;31;20107;-82
2022/09/17 07:39:57;;;;;;;7.28;2.17;;;;;;;15.67;56.28;97731.13;4470948;32;20100;-81
2022/09/17 07:42:22;;;;;;;5.93;1.80;;;;;;;15.70;56.80;97732.63;4497999;31;20119;-81
2022/09/17 07:44:48;;;;;;;7.30;1.98;;;;;;;16.20;55.51;97736.91;4488204;31;20157;-80
2022/09/17 07:47:13;;;;;;;6.68;2.03;;;;;;;16.30;54.67;97730.56;4496005;31;20135;-80
2022/09/17 07:49:39;;;;;;;6.45;2.17;;;;;;;16.40;53.99;97738.50;4494014;31;20110;-80
2022/09/17 07:52:05;;;;;;;7.07;2.20;;;;;;;16.52;53.47;97740.00;4483842;32;20080;-81
2022/09/17 07:54:35;;;;;;;7.00;1.95;;;;;;;16.67;53.20;97731.53;4482769;32;20101;-80
2022/09/17 07:57:01;;;;;;;6.45;1.85;;;;;;;16.55;52.96;97735.34;4489989;31;20135;-81
2022/09/17 07:59:26;;;;;;;7.32;1.90;;;;;;;16.28;53.22;97735.19;4465766;32;20245;-80
2022/09/17 08:01:52;;;;;;;6.37;1.80;;;;;;;16.14;53.73;97733.00;4490328;31;160426;-81
2022/09/17 08:04:17;;;;;;;7.50;1.90;;;;;;;16.52;52.92;97740.00;4483148;32;20465;-81
2022/09/17 08:06:43;;;;;;;6.78;2.20;;;;;;;16.28;53.74;97744.97;4498361;31;20128;-81
2022/09/17 08:09:09;;;;;;;6.57;1.83;;;;;;;16.39;53.78;97742.12;4490150;31;20084;-84
2022/09/17 08:11:35;;;;;;;6.60;1.80;;;;;;;16.38;53.96;97755.56;4483933;32;20164;-82
2022/09/17 08:14:00;;;;;;;7.40;1.90;;;;;;;15.89;55.35;97766.34;4493248;31;20115;-83
2022/09/17 08:16:26;;;;;;;8.77;2.10;;;;;;;15.95;54.94;97771.06;4483480;31;20136;-83
2022/09/17 08:18:56;;;;;;;6.93;1.92;;;;;;;16.26;54.09;97777.03;4473454;31;20100;-83
2022/09/17 08:21:23;;;;;;;5.18;1.67;;;;;;;16.14;53.52;97785.31;4483633;32;20096;-83
2022/09/17 08:23:48;;;;;;;7.65;2.12;;;;;;;15.94;54.66;97787.16;4493362;31;20100;-81
2022/09/17 08:26:20;;;;;;;7.05;2.03;;;;;;;15.61;55.55;97779.47;4488018;31;20126;-81
2022/09/17 08:28:48;;;;;;;6.07;2.20;;;;;;;15.91;55.32;97789.09;4498145;31;20147;-80
2022/09/17 08:31:15;;;;;;;7.30;2.40;;;;;;;15.67;55.76;97786.88;4493529;31;20117;-83
2022/09/17 08:33:41;;;;;;;7.95;2.08;;;;;;;15.92;54.90;97785.47;4490158;31;20126;-82
2022/09/17 08:36:08;;;;;;;6.32;1.95;;;;;;;15.84;55.42;97780.06;4489466;31;20123;-81
2022/09/17 08:38:38;;;;;;;7.50;2.15;;;;;;;15.62;55.95;97788.28;4469362;32;20115;-82
2022/09/17 08:41:10;;;;;;;8.23;2.20;;;;;;;15.89;55.35;97780.44;4481278;32;20161;-80
2022/09/17 08:43:43;;;;;;;7.95;1.80;;;;;;;15.66;55.78;97779.03;4484862;32;20113;-81
2022/09/17 08:46:10;;;;;;;8.80;2.35;;;;;;;15.60;56.26;97788.41;4483436;32;20124;-80
2022/09/17 08:48:42;;;;;;;7.97;2.35;;;;;;;15.41;57.22;97781.25;4486058;31;20080;-80
2022/09/17 08:51:27;;;;;;;5.75;2.15;;;;;;;15.84;56.13;97765.91;4473323;32;20198;-81
2022/09/17 08:54:03;;;;;;;7.43;2.25;;;;;;;16.07;55.90;97746.03;4473179;32;20127;-81
2022/09/17 08:56:30;;;;;;;5.93;2.08;;;;;;;15.93;56.33;97735.84;4482616;32;20138;-79
2022/09/17 08:59:05;;;;;;;8.95;2.72;;;;;;;15.81;56.17;97744.97;4484986;32;20087;-81
2022/09/17 09:01:36;;;;;;;7.45;2.17;;;;;;;15.42;57.77;97751.09;4498497;31;20167;-79
2022/09/17 09:04:33;;;;;;;6.40;2.35;;;;;;;15.78;56.59;97754.06;4488483;31;20100;-78
2022/09/17 09:07:11;;;;;;;7.75;2.75;;;;;;;15.60;56.62;97753.88;4502961;31;20103;-79
2022/09/17 09:09:40;;;;;;;8.40;2.78;;;;;;;15.49;57.13;97754.03;4488494;31;20148;-79
2022/09/17 09:12:21;;;;;;;8.13;2.55;;;;;;;15.62;56.25;97753.75;4502296;31;20415;-79
2022/09/17 09:14:52;;;;;;;9.13;2.80;;;;;;;15.48;56.83;97760.34;4482072;31;20131;-79
2022/09/17 09:17:21;;;;;;;9.68;2.80;;;;;;;15.83;55.67;97757.12;4488459;31;20096;-81
2022/09/17 09:19:48;;;;;;;8.70;2.97;;;;;;;15.63;55.87;97760.75;4487188;32;20101;-80
2022/09/17 09:22:29;;;;;;;6.93;2.60;;;;;;;14.96;57.85;97760.56;4459241;32;20080;-80
2022/09/17 09:25:26;;;;;;;7.70;2.50;;;;;;;15.84;55.47;97763.25;4487173;32;20167;-79
2022/09/17 09:28:20;;;;;;;9.80;2.70;;;;;;;15.38;56.57;97752.37;4472485;32;20100;-80
2022/09/17 09:31:11;;;;;;;8.10;2.20;;;;;;;16.05;54.94;97760.41;4479460;32;20092;-80
2022/09/17 09:33:38;;;;;;;7.35;2.65;;;;;;;16.19;54.83;97748.53;4472861;32;20111;-80
2022/09/17 09:36:11;;;;;;;6.03;2.20;;;;;;;16.14;54.59;97756.09;4472347;32;20108;-79
2022/09/17 09:38:45;;;;;;;8.07;2.58;;;;;;;16.36;53.76;97752.22;4459329;32;20240;-80
2022/09/17 09:41:14;;;;;;;7.25;2.50;;;;;;;15.79;55.29;97745.09;4472387;31;20491;-80
2022/09/17 09:43:45;;;;;;;7.25;2.35;;;;;;;15.95;54.83;97755.13;4472928;32;20084;-80
2022/09/17 09:46:20;;;;;;;6.28;2.12;;;;;;;16.34;53.64;97752.37;4472351;31;20105;-79
2022/09/17 09:49:10;;;;;;;8.55;2.40;;;;;;;15.71;55.95;97764.38;4486628;32;20383;-80
2022/09/17 09:51:49;;;;;;;9.77;3.08;;;;;;;16.36;54.55;97763.72;4472131;32;20128;-80
2022/09/17 09:54:20;;;;;;;7.15;2.30;;;;;;;16.10;55.20;97766.16;4487491;31;20096;-80
2022/09/17 09:57:02;;;;;;;8.38;2.80;;;;;;;16.29;54.22;97749.31;4485575;31;20096;-79
2022/09/17 09:59:28;;;;;;;7.53;2.20;;;;;;;16.22;54.36;97761.50;4482633;32;20096;-78
2022/09/17 10:01:53;;;;;;;8.10;2.40;;;;;;;16.62;53.44;97752.41;4500338;31;20144;-79
2022/09/17 10:04:24;;;;;;;10.32;2.33;;;;;;;16.74;52.81;97758.34;4501364;31;20107;-78
2022/09/17 10:07:05;;;;;;;6.90;2.22;;;;;;;16.16;54.77;97776.19;4488133;31;20108;-78
2022/09/17 10:09:33;;;;;;;5.25;2.12;;;;;;;16.83;53.67;97757.50;4487148;31;20092;-78
2022/09/17 10:12:07;;;;;;;7.25;2.10;;;;;;;16.68;53.10;97749.97;4487958;31;20096;-79
2022/09/17 10:14:43;;;;;;;7.85;2.03;;;;;;;16.64;53.28;97747.78;4501429;31;20096;-78
2022/09/17 10:17:11;;;;;;;7.37;2.03;;;;;;;16.80;52.17;97720.53;4502504;31;20464;-79
2022/09/17 10:19:37;;;;;;;7.12;2.00;;;;;;;16.40;51.58;97721.69;4486826;31;20441;-79
2022/09/17 10:22:25;;;;;;;5.45;1.80;;;;;;;16.50;50.70;97731.31;4502220;31;20084;-81
2022/09/17 10:24:52;;;;;;;6.25;1.83;;;;;;;16.35;51.92;97738.09;4477431;31;20099;-82
2022/09/17 10:27:20;;;;;;;6.10;1.70;;;;;;;16.74;50.50;97710.50;4459022;32;20153;-81
2022/09/17 10:29:48;;;;;;;7.10;1.73;;;;;;;17.29;49.49;97702.44;4471022;32;20097;-81
2022/09/17 10:32:24;;;;;;;6.85;2.00;;;;;;;16.92;50.03;97702.56;4472448;32;20076;-81
2022/09/17 10:35:24;;;;;;;4.85;1.60;;;;;;;16.98;49.41;97689.50;4471725;32;20091;-79
2022/09/17 10:37:51;;;;;;;7.57;1.80;;;;;;;16.45;49.81;97691.03;4486079;32;20108;-79
2022/09/17 10:40:19;;;;;;;6.03;1.30;;;;;;;16.40;49.19;97703.09;4471867;32;20130;-80
2022/09/17 10:42:46;;;;;;;5.95;1.45;;;;;;;16.69;48.50;97708.28;4485936;31;20135;-80
2022/09/17 10:45:28;;;;;;;6.68;1.42;;;;;;;16.64;48.18;97707.87;4472006;32;20107;-81
2022/09/17 10:47:55;;;;;;;4.30;1.30;;;;;;;16.34;48.69;97712.53;4471591;31;20126;-80
2022/09/17 10:50:32;;;;;;;5.12;1.35;;;;;;;16.31;48.46;97707.50;4471923;32;20774;-80
2022/09/17 10:53:06;;;;;;;3.95;1.30;;;;;;;16.52;48.13;97693.97;4472119;31;20089;-82
2022/09/17 10:56:00;;;;;;;5.87;1.42;;;;;;;16.43;48.01;97670.91;4472442;32;20072;-81
2022/09/17 10:58:39;;;;;;;5.03;1.37;;;;;;;16.20;47.87;97655.34;4472253;32;20240;-81
2022/09/17 11:01:21;;;;;;;6.97;1.50;;;;;;;16.11;48.23;97650.94;4495162;31;20106;-79
2022/09/17 11:04:20;;;;;;;5.25;1.50;;;;;;;16.06;49.07;97629.28;4487752;31;20122;-80
2022/09/17 11:07:07;;;;;;;4.70;1.40;;;;;;;16.20;49.02;97630.59;4487042;31;20084;-80
2022/09/17 11:09:52;;;;;;;5.55;1.40;;;;;;;15.78;49.62;97655.81;4503948;31;20096;-80
2022/09/17 11:12:27;;;;;;;8.57;1.48;;;;;;;15.99;49.49;97668.03;4503225;31;20586;-79
2022/09/17 11:16:06;;;;;;;6.18;1.50;;;;;;;16.01;48.78;97676.69;4503976;31;20118;-81
2022/09/17 11:18:35;;;;;;;7.00;1.52;;;;;;;16.10;48.35;97687.28;4378133;32;20122;-79
2022/09/17 11:21:15;;;;;;;4.78;1.30;;;;;;;15.09;50.39;97691.34;4378288;32;20110;-79
2022/09/17 11:24:43;;;;;;;5.12;1.25;;;;;;;15.27;49.67;97680.88;4356641;32;20157;-81
2022/09/17 11:27:11;;;;;;;4.97;1.35;;;;;;;15.46;49.84;97691.47;4345513;32;20107;-80
2022/09/17 11:29:55;;;;;;;3.78;1.10;;;;;;;15.52;48.15;97719.25;4348347;33;20091;-80
2022/09/17 11:32:35;;;;;;;5.25;1.10;;;;;;;15.57;48.91;97716.16;4344466;32;20150;-81
2022/09/17 11:35:08;;;;;;;6.47;1.30;;;;;;;15.41;47.88;97728.19;4342871;33;20572;-82
2022/09/17 11:38:09;;;;;;;6.37;1.12;;;;;;;15.55;47.46;97705.72;4339934;32;20155;-80
2022/09/17 11:40:49;;;;;;;5.47;1.50;;;;;;;15.38;46.92;97703.78;4323411;33;20167;-82
2022/09/17 11:43:18;;;;;;;4.32;1.10;;;;;;;15.00;47.69;97702.78;4327012;32;20141;-83
2022/09/17 11:45:54;;;;;;;5.50;1.20;;;;;;;15.13;48.29;97695.41;4341322;33;20123;-82
2022/09/17 11:48:23;;;;;;;5.65;1.10;;;;;;;15.29;48.66;97693.00;4345113;32;20144;-80
2022/09/17 11:50:54;;;;;;;5.50;1.30;;;;;;;15.80;48.41;97691.03;4386920;32;20398;-82